Portada
METAR-TAF:

METAR-TAF

Aeroports :

Balikpapan, Indonèsia

latitud: 01-16-06S, longitud: 116-53-40E, altitud: 4 m

METAR: manca

Hora: 00:49 (17:49 UTC)

Pronòstic

L'informe es va fer fa 49 minuts, a les 17:00 UTC
Pronòstic vàlid del 21 a les 18 UTC al 22 a les 24 UTC
Vent 7 kt del Oest/Nord-Oest, variant entre Est/Sud-Est i Sud-Oest
Visibilitat: 9000 m
Núvols disperses a una alçada de 1700 ft
Temporalment
l' 21 a les 21 UTC al 21 a les 24 UTC
Visibilitat: 3000 m
boirina
Probabilitat 30% :
Temporalment
l' 22 a les 00 UTC al 22 a les 03 UTC
Visibilitat: 4000 m
Cel ennuvolat a una alçada de 1500 ft
xàfecs de pluja

TAF: WALL 211700Z 2118/2224 30007KT 120V230 9000 SCT017 TEMPO 2121/2124 3000 BR PROB30 TEMPO 2200/2203 4000 SHRA BKN015

Observacions i pronòstics meteorològics de més de 4000 aeroports (METAR i TAF).

Les estacions disponibles són els punts grocs i vermells al mapa.

Posi el ratolí al punt desitjat per veure el nom de l'estació.

Feu clic per veure les observacions i els pronòstics meteorològics.

Per canviar el mapa: feu clic els botons verds amb una creu de color negre per apropar; al botó verd amb un guió per allunyar la imatge; o en les fletxes verdes per a mapes adjacents.


METAR-TAF: